Time;durP1;ratioP1;P1;durP2;ratioP2;P2;SDS_P1;SDS_P2;PMS_P1;PMS_P2;Temp;Humidity;BMP_temperature;BMP_pressure;BME280_temperature;BME280_humidity;BME280_pressure;Samples;Min_cycle;Max_cycle;Signal;HPM_P1;HPM_P2
2023/08/18 00:02:15;;;;;;;7.57;2.88;;;20.80;87.50;;;;;;6251553;23;20011;-84
2023/08/18 00:04:41;;;;;;;8.35;3.10;;;20.70;87.60;;;;;;6251413;23;20308;-83
2023/08/18 00:07:07;;;;;;;7.43;3.17;;;20.60;87.90;;;;;;6249451;23;20004;-83
2023/08/18 00:09:33;;;;;;;6.13;2.80;;;20.50;88.60;;;;;;6251365;23;20050;-83
2023/08/18 00:11:58;;;;;;;7.88;3.22;;;20.40;88.80;;;;;;6250724;23;20008;-83
2023/08/18 00:14:24;;;;;;;7.45;2.78;;;20.40;89.00;;;;;;6251405;23;19996;-82
2023/08/18 00:16:50;;;;;;;7.30;2.88;;;20.30;89.90;;;;;;6224814;23;20001;-81
2023/08/18 00:19:16;;;;;;;8.10;2.80;;;20.20;88.90;;;;;;6251235;23;20255;-82
2023/08/18 00:21:41;;;;;;;7.10;3.15;;;20.10;89.40;;;;;;6249035;23;20076;-82
2023/08/18 00:24:07;;;;;;;6.75;2.88;;;20.00;89.90;;;;;;6251285;23;20000;-83
2023/08/18 00:26:32;;;;;;;6.38;2.90;;;20.00;90.80;;;;;;6224410;23;20309;-83
2023/08/18 00:28:58;;;;;;;7.88;2.95;;;19.80;90.40;;;;;;6251028;23;20000;-83
2023/08/18 00:31:24;;;;;;;5.90;2.90;;;19.70;91.00;;;;;;6250680;23;20000;-84
2023/08/18 00:33:50;;;;;;;11.50;3.17;;;19.60;92.00;;;;;;6251213;23;20019;-84
2023/08/18 00:36:16;;;;;;;7.93;2.88;;;19.50;92.20;;;;;;6249384;23;20008;-84
2023/08/18 00:38:41;;;;;;;6.28;2.95;;;19.40;92.90;;;;;;6251081;23;20079;-83
2023/08/18 00:41:07;;;;;;;6.30;3.00;;;19.30;93.60;;;;;;6224270;23;20309;-83
2023/08/18 00:43:33;;;;;;;6.20;3.30;;;19.10;93.90;;;;;;6224360;23;20326;-83
2023/08/18 00:45:58;;;;;;;5.70;2.72;;;19.00;94.70;;;;;;6250308;23;20417;-83
2023/08/18 00:48:24;;;;;;;6.65;3.50;;;18.80;94.70;;;;;;6223935;23;20008;-85
2023/08/18 00:50:51;;;;;;;8.80;2.75;;;18.70;95.70;;;;;;6248237;23;20007;-83
2023/08/18 00:53:17;;;;;;;9.52;3.50;;;18.50;96.60;;;;;;6223711;23;20000;-83
2023/08/18 00:55:45;;;;;;;7.57;3.22;;;18.40;96.60;;;;;;6250900;23;20054;-82
2023/08/18 00:58:11;;;;;;;6.97;3.13;;;18.30;96.90;;;;;;6251099;23;20008;-82
2023/08/18 01:00:36;;;;;;;6.10;2.92;;;18.20;97.40;;;;;;6250910;23;20004;-82
2023/08/18 01:03:06;;;;;;;6.55;3.50;;;18.10;97.40;;;;;;6250951;23;20358;-81
2023/08/18 01:05:32;;;;;;;8.30;3.45;;;18.10;98.00;;;;;;6249118;23;20370;-81
2023/08/18 01:07:59;;;;;;;5.53;3.25;;;18.00;97.00;;;;;;6250160;23;20000;-83
2023/08/18 01:10:27;;;;;;;10.85;3.13;;;17.90;97.50;;;;;;6250385;23;20000;-83
2023/08/18 01:13:21;;;;;;;6.25;3.17;;;17.90;98.00;;;;;;6248994;23;20378;-85
2023/08/18 01:15:49;;;;;;;11.23;3.50;;;17.80;98.00;;;;;;6250353;23;20079;-83
2023/08/18 01:18:15;;;;;;;5.15;2.80;;;17.70;98.00;;;;;;6249156;23;20362;-83
2023/08/18 01:20:41;;;;;;;6.25;2.97;;;17.60;98.00;;;;;;6247844;23;20358;-84
2023/08/18 01:23:08;;;;;;;6.60;2.95;;;17.60;98.00;;;;;;6250047;23;20075;-84
2023/08/18 01:25:34;;;;;;;9.52;3.80;;;17.90;97.50;;;;;;6250061;23;20075;-83
2023/08/18 01:28:02;;;;;;;9.13;3.47;;;18.00;97.40;;;;;;6249915;23;20035;-84
2023/08/18 01:30:47;;;;;;;9.20;4.20;;;18.10;97.50;;;;;;6250506;23;19996;-83
2023/08/18 01:33:37;;;;;;;10.40;3.72;;;18.40;97.40;;;;;;6223033;23;20011;-83
2023/08/18 01:36:07;;;;;;;7.57;3.88;;;18.40;97.00;;;;;;6248762;23;20020;-84
2023/08/18 01:38:34;;;;;;;9.00;3.60;;;18.30;97.00;;;;;;6248984;23;20004;-84
2023/08/18 01:41:00;;;;;;;6.57;3.70;;;18.40;97.30;;;;;;6250208;23;20004;-83
2023/08/18 01:43:27;;;;;;;7.80;3.90;;;18.40;97.20;;;;;;6222614;23;20338;-83
2023/08/18 01:45:53;;;;;;;6.50;3.78;;;18.30;97.30;;;;;;6250391;23;20026;-83
2023/08/18 01:48:19;;;;;;;7.03;3.85;;;18.20;97.60;;;;;;6248737;23;20004;-84
2023/08/18 01:50:45;;;;;;;11.40;4.78;;;18.10;97.80;;;;;;6221127;23;20390;-85
2023/08/18 01:53:11;;;;;;;8.80;5.15;;;18.20;98.00;;;;;;6249985;23;20027;-83
2023/08/18 01:55:37;;;;;;;13.25;5.20;;;18.20;98.00;;;;;;6249562;23;19996;-84
2023/08/18 01:58:02;;;;;;;11.70;4.55;;;18.20;98.00;;;;;;6249962;23;20000;-84
2023/08/18 02:00:28;;;;;;;11.27;4.97;;;18.10;97.90;;;;;;6249403;23;20357;-86
2023/08/18 02:02:53;;;;;;;9.27;4.80;;;18.10;98.00;;;;;;6248861;23;20016;-84
2023/08/18 02:05:19;;;;;;;10.90;5.47;;;18.00;98.00;;;;;;6248859;23;20004;-83
2023/08/18 02:07:44;;;;;;;9.60;5.03;;;17.80;97.70;;;;;;6249228;23;20261;-84
2023/08/18 02:10:10;;;;;;;9.35;5.18;;;17.70;97.50;;;;;;6249514;23;19993;-84
2023/08/18 02:12:35;;;;;;;9.93;5.00;;;17.60;97.30;;;;;;6249474;23;20000;-84
2023/08/18 02:15:01;;;;;;;8.75;4.55;;;17.60;97.10;;;;;;6249035;23;20074;-83
2023/08/18 02:17:29;;;;;;;9.35;4.80;;;17.60;97.10;;;;;;6249438;23;20000;-83
2023/08/18 02:19:58;;;;;;;8.70;4.80;;;17.60;97.30;;;;;;6248989;23;20050;-84
2023/08/18 02:22:25;;;;;;;9.02;4.65;;;17.50;97.00;;;;;;6247484;23;20031;-83
2023/08/18 02:24:51;;;;;;;10.82;4.72;;;17.40;96.90;;;;;;6249781;23;20370;-84
2023/08/18 02:27:17;;;;;;;7.32;4.32;;;17.30;96.50;;;;;;6249756;23;20004;-86
2023/08/18 02:29:42;;;;;;;10.35;4.63;;;17.20;96.70;;;;;;6249111;23;20258;-85
2023/08/18 02:32:08;;;;;;;9.30;4.25;;;17.20;96.50;;;;;;6249766;23;19996;-84
2023/08/18 02:34:33;;;;;;;9.60;4.05;;;17.30;97.50;;;;;;6249020;23;20366;-84
2023/08/18 02:36:59;;;;;;;9.13;5.00;;;17.30;97.50;;;;;;6220572;23;20455;-84
2023/08/18 02:39:24;;;;;;;9.07;5.07;;;17.30;97.10;;;;;;6249237;23;20289;-83
2023/08/18 02:41:51;;;;;;;8.27;4.45;;;17.20;96.70;;;;;;6248820;23;20000;-84
2023/08/18 02:44:17;;;;;;;8.95;5.32;;;17.20;96.70;;;;;;6248302;23;20020;-84
2023/08/18 02:46:43;;;;;;;8.50;4.70;;;17.00;95.90;;;;;;6249671;23;20001;-84
2023/08/18 02:49:08;;;;;;;9.38;4.50;;;16.90;95.70;;;;;;6249125;23;20015;-84
2023/08/18 02:51:34;;;;;;;9.00;4.80;;;16.80;95.80;;;;;;6248502;23;19996;-84
2023/08/18 02:53:59;;;;;;;8.50;4.40;;;16.80;95.90;;;;;;6249914;23;19996;-84
2023/08/18 02:56:26;;;;;;;8.52;5.53;;;16.80;95.50;;;;;;6249783;23;20231;-84
2023/08/18 02:58:52;;;;;;;10.45;5.22;;;16.80;95.20;;;;;;6249744;23;20001;-85
2023/08/18 03:01:17;;;;;;;9.88;4.57;;;16.80;94.70;;;;;;6249634;23;20007;-84
2023/08/18 03:03:43;;;;;;;11.25;5.10;;;16.60;94.50;;;;;;6249560;23;20004;-84
2023/08/18 03:06:08;;;;;;;9.02;4.85;;;16.60;93.80;;;;;;6248485;23;20000;-84
2023/08/18 03:08:39;;;;;;;9.30;5.15;;;16.50;93.80;;;;;;6249776;23;20005;-84
2023/08/18 03:11:04;;;;;;;8.10;4.70;;;16.40;93.60;;;;;;6249158;23;20083;-84
2023/08/18 03:13:30;;;;;;;8.23;5.50;;;16.30;93.40;;;;;;6248939;23;20035;-84
2023/08/18 03:15:59;;;;;;;9.52;5.38;;;16.30;92.30;;;;;;6249034;23;20059;-84
2023/08/18 03:18:24;;;;;;;7.93;5.53;;;16.30;92.00;;;;;;6249381;23;20427;-84
2023/08/18 03:20:56;;;;;;;11.73;5.68;;;16.30;91.90;;;;;;6247736;23;20024;-84
2023/08/18 03:23:22;;;;;;;8.35;5.20;;;16.30;91.40;;;;;;6249107;23;20071;-84
2023/08/18 03:25:47;;;;;;;13.10;5.13;;;16.30;92.10;;;;;;6249083;23;20027;-84
2023/08/18 03:28:13;;;;;;;8.02;4.82;;;16.30;93.10;;;;;;6248677;23;20004;-83
2023/08/18 03:30:40;;;;;;;9.30;4.65;;;16.30;92.40;;;;;;6222821;23;20004;-84
2023/08/18 03:33:07;;;;;;;9.23;4.40;;;16.20;92.50;;;;;;6250722;23;20034;-84
2023/08/18 03:35:35;;;;;;;7.78;5.00;;;16.10;92.40;;;;;;6248752;23;20004;-84
2023/08/18 03:38:04;;;;;;;10.25;5.90;;;16.10;92.20;;;;;;6251463;23;20016;-84
2023/08/18 03:40:30;;;;;;;9.95;5.85;;;16.10;91.80;;;;;;6249922;23;20062;-84
2023/08/18 03:42:56;;;;;;;9.38;5.35;;;16.00;90.90;;;;;;6249872;23;20015;-84
2023/08/18 03:45:21;;;;;;;11.85;6.05;;;15.90;90.70;;;;;;6224332;23;20008;-84
2023/08/18 03:47:47;;;;;;;8.77;5.28;;;15.70;90.10;;;;;;6251269;23;20079;-84
2023/08/18 03:50:13;;;;;;;8.60;5.75;;;15.70;89.30;;;;;;6223794;23;20361;-84
2023/08/18 03:52:39;;;;;;;7.43;4.65;;;15.70;89.20;;;;;;6251338;23;20000;-83
2023/08/18 03:55:05;;;;;;;9.48;5.32;;;15.70;89.10;;;;;;6223851;23;20007;-83
2023/08/18 03:57:31;;;;;;;9.55;5.07;;;15.60;88.50;;;;;;6251208;23;20000;-82
2023/08/18 03:59:56;;;;;;;9.07;6.03;;;15.60;88.70;;;;;;6223712;23;20012;-83
2023/08/18 04:02:23;;;;;;;8.52;5.05;;;15.60;88.90;;;;;;6249987;23;20027;-84
2023/08/18 04:04:48;;;;;;;11.35;5.25;;;15.60;88.30;;;;;;6224312;23;20321;-85
2023/08/18 04:07:14;;;;;;;9.02;4.63;;;15.70;89.00;;;;;;6249183;23;20093;-84
2023/08/18 04:09:39;;;;;;;10.35;5.32;;;15.60;88.70;;;;;;6224318;23;20000;-84
2023/08/18 04:12:05;;;;;;;9.77;5.00;;;15.70;89.20;;;;;;6251619;23;20032;-85
2023/08/18 04:14:31;;;;;;;10.00;5.00;;;15.60;88.80;;;;;;6250464;23;19999;-84
2023/08/18 04:16:56;;;;;;;8.43;4.28;;;15.60;88.60;;;;;;6224312;23;20044;-84
2023/08/18 04:19:22;;;;;;;10.88;4.30;;;15.60;88.70;;;;;;6250706;23;20054;-85
2023/08/18 04:21:48;;;;;;;9.95;4.68;;;15.70;89.60;;;;;;6222382;23;20066;-84
2023/08/18 04:24:13;;;;;;;8.20;4.25;;;15.70;89.70;;;;;;6250606;23;20080;-85
2023/08/18 04:26:39;;;;;;;8.75;4.43;;;15.60;90.30;;;;;;6250441;23;20043;-85
2023/08/18 04:29:05;;;;;;;13.85;4.70;;;15.60;90.10;;;;;;6224210;23;20008;-84
2023/08/18 04:31:31;;;;;;;7.40;3.53;;;15.60;89.40;;;;;;6224434;23;20027;-86
2023/08/18 04:33:57;;;;;;;10.02;3.92;;;15.70;91.80;;;;;;6250234;23;20008;-85
2023/08/18 04:36:26;;;;;;;8.55;4.18;;;15.70;91.90;;;;;;6221456;23;20024;-85
2023/08/18 04:38:51;;;;;;;11.77;4.40;;;15.70;92.50;;;;;;6249880;23;20089;-85
2023/08/18 04:41:17;;;;;;;9.27;4.30;;;15.80;92.10;;;;;;6250129;23;20003;-84
2023/08/18 04:43:42;;;;;;;13.18;4.20;;;15.70;92.30;;;;;;6250236;23;20397;-85
2023/08/18 04:46:08;;;;;;;9.23;4.25;;;15.70;91.70;;;;;;6223837;23;20011;-84
2023/08/18 04:48:34;;;;;;;9.52;4.03;;;15.70;91.40;;;;;;6248891;23;20004;-86
2023/08/18 04:50:59;;;;;;;7.80;3.65;;;15.70;90.90;;;;;;6222986;23;20004;-85
2023/08/18 04:53:25;;;;;;;8.60;3.70;;;15.70;91.10;;;;;;6250067;23;20351;-86
2023/08/18 04:55:51;;;;;;;9.02;3.78;;;15.80;92.30;;;;;;6250624;23;19996;-85
2023/08/18 04:58:17;;;;;;;8.85;3.28;;;15.90;92.90;;;;;;6250101;23;20423;-85
2023/08/18 05:00:43;;;;;;;7.80;3.13;;;16.00;93.30;;;;;;6250147;23;20027;-85
2023/08/18 05:03:09;;;;;;;7.88;2.92;;;16.10;94.20;;;;;;6250217;23;20067;-83
2023/08/18 05:05:39;;;;;;;12.80;3.72;;;16.10;94.10;;;;;;6248895;23;20007;-86
2023/08/18 05:08:05;;;;;;;10.20;4.18;;;16.10;93.60;;;;;;6250008;23;19996;-85
2023/08/18 05:10:30;;;;;;;8.35;3.17;;;16.10;93.70;;;;;;6249808;23;20174;-84
2023/08/18 05:12:56;;;;;;;7.35;3.33;;;16.10;93.50;;;;;;6223541;23;20042;-85
2023/08/18 05:15:22;;;;;;;9.57;3.75;;;16.20;94.10;;;;;;6224101;23;20011;-84
2023/08/18 05:17:48;;;;;;;7.38;3.67;;;16.30;94.00;;;;;;6249619;23;20369;-85
2023/08/18 05:20:15;;;;;;;8.15;3.88;;;16.20;93.70;;;;;;6247242;23;20012;-86
2023/08/18 05:22:41;;;;;;;5.95;2.85;;;16.30;93.00;;;;;;6249526;23;19997;-84
2023/08/18 05:25:07;;;;;;;6.75;3.03;;;16.30;93.30;;;;;;6248304;23;20014;-85
2023/08/18 05:27:37;;;;;;;7.32;2.78;;;16.30;93.60;;;;;;6250193;23;20079;-85
2023/08/18 05:30:04;;;;;;;5.25;2.75;;;16.40;93.80;;;;;;6250029;23;20000;-85
2023/08/18 05:32:30;;;;;;;6.35;2.88;;;16.40;94.90;;;;;;6249547;23;20000;-84
2023/08/18 05:34:56;;;;;;;6.05;3.30;;;16.50;95.30;;;;;;6248571;23;20000;-85
2023/08/18 05:37:23;;;;;;;7.72;2.85;;;16.60;95.00;;;;;;6248794;23;20497;-84
2023/08/18 05:39:49;;;;;;;5.97;3.10;;;16.70;95.50;;;;;;6249642;23;20062;-84
2023/08/18 05:42:15;;;;;;;6.55;3.03;;;16.80;95.80;;;;;;6248941;23;20273;-85
2023/08/18 05:44:43;;;;;;;8.95;3.30;;;16.90;96.20;;;;;;6249396;23;20377;-84
2023/08/18 05:47:09;;;;;;;7.82;2.58;;;17.00;96.80;;;;;;6249595;23;20127;-84
2023/08/18 05:49:34;;;;;;;6.38;2.78;;;17.10;97.50;;;;;;6249596;23;20019;-84
2023/08/18 05:52:00;;;;;;;6.95;2.78;;;17.30;98.00;;;;;;6247453;23;19996;-85
2023/08/18 05:54:26;;;;;;;4.78;2.70;;;17.50;98.00;;;;;;6248664;23;20076;-85
2023/08/18 05:56:52;;;;;;;7.40;3.45;;;17.70;97.90;;;;;;6248449;23;20042;-85
2023/08/18 05:59:17;;;;;;;12.20;3.35;;;17.70;97.90;;;;;;6248496;23;20352;-85
2023/08/18 06:01:43;;;;;;;6.70;3.10;;;17.80;98.00;;;;;;6250068;23;20004;-85
2023/08/18 06:04:08;;;;;;;8.38;2.75;;;17.90;98.00;;;;;;6249859;23;20000;-85
2023/08/18 06:06:34;;;;;;;8.35;3.47;;;18.10;98.00;;;;;;6247725;23;20030;-85
2023/08/18 06:09:01;;;;;;;8.88;3.53;;;18.20;98.00;;;;;;6249335;23;20089;-85
2023/08/18 06:11:27;;;;;;;14.95;4.47;;;18.30;98.00;;;;;;6245966;23;20022;-84
2023/08/18 06:13:53;;;;;;;10.40;3.10;;;18.50;98.00;;;;;;6247838;23;20059;-84
2023/08/18 06:16:18;;;;;;;7.70;3.45;;;18.60;98.00;;;;;;6248659;23;20075;-85
2023/08/18 06:18:44;;;;;;;6.45;3.17;;;18.80;98.00;;;;;;6222853;23;20011;-86
2023/08/18 06:21:09;;;;;;;6.32;3.05;;;18.90;98.00;;;;;;6247846;23;20254;-85
2023/08/18 06:23:36;;;;;;;7.57;3.50;;;18.90;98.00;;;;;;6248912;23;20001;-85
2023/08/18 06:26:01;;;;;;;5.63;2.67;;;19.10;97.60;;;;;;6248845;23;20085;-85
2023/08/18 06:28:27;;;;;;;8.48;3.42;;;19.30;97.30;;;;;;6249114;23;20346;-85
2023/08/18 06:30:52;;;;;;;4.85;2.50;;;19.40;96.80;;;;;;6249724;23;20008;-84
2023/08/18 06:33:18;;;;;;;8.02;2.67;;;19.50;96.00;;;;;;6248989;23;20001;-85
2023/08/18 06:35:43;;;;;;;9.13;2.90;;;19.60;96.20;;;;;;6247595;23;20004;-85
2023/08/18 06:38:09;;;;;;;5.15;2.75;;;19.80;96.30;;;;;;6249659;23;20007;-85
2023/08/18 06:40:34;;;;;;;6.85;2.60;;;19.90;95.80;;;;;;6248243;23;20004;-85
2023/08/18 06:43:00;;;;;;;7.80;2.88;;;20.00;95.20;;;;;;6249631;23;20000;-85
2023/08/18 06:45:28;;;;;;;7.07;2.53;;;20.20;94.60;;;;;;6249541;23;20014;-85
2023/08/18 06:47:54;;;;;;;5.00;2.60;;;20.40;94.00;;;;;;6248226;23;20023;-84
2023/08/18 06:50:22;;;;;;;6.22;2.67;;;20.50;93.10;;;;;;6246767;23;20254;-83
2023/08/18 06:52:48;;;;;;;6.60;2.63;;;20.60;93.40;;;;;;6221134;23;20005;-83
2023/08/18 06:55:14;;;;;;;6.25;3.10;;;20.70;93.00;;;;;;6248778;23;20418;-83
2023/08/18 06:57:41;;;;;;;6.80;2.72;;;20.80;93.00;;;;;;6223288;23;20004;-85
2023/08/18 07:00:09;;;;;;;7.78;3.05;;;20.90;92.60;;;;;;6249441;23;20079;-84
2023/08/18 07:02:35;;;;;;;6.90;2.83;;;20.80;92.80;;;;;;6249377;23;20070;-84
2023/08/18 07:05:01;;;;;;;7.13;2.63;;;20.90;92.60;;;;;;6248249;23;20369;-84
2023/08/18 07:07:26;;;;;;;10.98;3.20;;;21.10;91.90;;;;;;6222798;23;20004;-85
2023/08/18 07:09:52;;;;;;;7.70;2.97;;;21.30;91.50;;;;;;6248795;23;19996;-84
2023/08/18 07:12:18;;;;;;;6.38;2.70;;;21.40;91.50;;;;;;6249542;23;20054;-84
2023/08/18 07:14:43;;;;;;;7.38;2.83;;;21.60;92.10;;;;;;6248619;23;19996;-84
2023/08/18 07:17:09;;;;;;;7.10;2.92;;;21.70;92.00;;;;;;6247423;23;20007;-84
2023/08/18 07:19:35;;;;;;;8.10;2.88;;;21.90;91.30;;;;;;6244768;23;20011;-84
2023/08/18 07:22:00;;;;;;;9.15;2.70;;;21.80;90.30;;;;;;6247815;23;19996;-85
2023/08/18 07:24:26;;;;;;;6.15;2.67;;;21.90;90.90;;;;;;6248491;23;20297;-84
2023/08/18 07:26:51;;;;;;;5.85;2.58;;;22.10;88.60;;;;;;6248321;23;19996;-84
2023/08/18 07:29:17;;;;;;;7.10;3.00;;;22.30;88.40;;;;;;6248393;23;20004;-85
2023/08/18 07:31:43;;;;;;;6.38;2.60;;;22.20;90.20;;;;;;6249275;23;20027;-85
2023/08/18 07:34:08;;;;;;;7.70;2.95;;;22.30;89.60;;;;;;6222604;23;20004;-85
2023/08/18 07:36:35;;;;;;;7.30;2.60;;;22.50;89.90;;;;;;6247115;23;20016;-85
2023/08/18 07:39:04;;;;;;;8.80;2.72;;;22.60;88.90;;;;;;6249035;23;20004;-84
2023/08/18 07:41:30;;;;;;;6.80;2.60;;;22.60;89.20;;;;;;6249435;23;20000;-84
2023/08/18 07:43:55;;;;;;;5.38;2.45;;;22.80;88.70;;;;;;6248763;23;20060;-83
2023/08/18 07:46:21;;;;;;;5.38;2.35;;;22.80;87.70;;;;;;6249010;23;20004;-84
2023/08/18 07:48:47;;;;;;;6.45;2.65;;;22.80;89.30;;;;;;6222042;23;20004;-84
2023/08/18 07:51:12;;;;;;;5.60;2.55;;;22.80;89.40;;;;;;6247867;23;20287;-84
2023/08/18 07:53:38;;;;;;;7.63;3.10;;;23.10;89.60;;;;;;6249248;23;20078;-84
2023/08/18 07:56:04;;;;;;;7.78;2.50;;;24.10;88.00;;;;;;6249313;23;20004;-85
2023/08/18 07:58:29;;;;;;;6.78;2.20;;;25.20;85.50;;;;;;6248928;23;20026;-84
2023/08/18 08:00:58;;;;;;;7.47;2.25;;;26.40;82.60;;;;;;6247219;23;20350;-84
2023/08/18 08:03:24;;;;;;;4.93;2.20;;;27.50;79.80;;;;;;6248615;23;20004;-84
2023/08/18 08:05:49;;;;;;;8.07;2.05;;;28.20;77.80;;;;;;6248001;23;20358;-85
2023/08/18 08:08:15;;;;;;;5.32;2.33;;;28.70;75.70;;;;;;6248071;23;20011;-85
2023/08/18 08:10:40;;;;;;;4.90;2.08;;;29.00;76.30;;;;;;6249665;23;19996;-85
2023/08/18 08:13:06;;;;;;;5.03;2.40;;;29.10;74.50;;;;;;6249241;23;20298;-85
2023/08/18 08:15:32;;;;;;;4.75;1.95;;;29.50;72.00;;;;;;6249499;23;20000;-85
2023/08/18 08:17:57;;;;;;;6.10;1.88;;;30.10;69.50;;;;;;6250400;23;20000;-85
2023/08/18 08:20:24;;;;;;;5.13;1.77;;;30.80;70.50;;;;;;6249209;23;20004;-85
2023/08/18 08:22:52;;;;;;;4.72;1.90;;;31.00;70.80;;;;;;6249716;23;20004;-85
2023/08/18 08:25:18;;;;;;;4.55;2.10;;;31.20;71.00;;;;;;6250600;23;20362;-85
2023/08/18 08:27:44;;;;;;;6.35;2.47;;;31.50;71.50;;;;;;6251251;23;20039;-85
2023/08/18 08:30:12;;;;;;;6.75;2.47;;;31.60;72.30;;;;;;6250764;23;20003;-85
2023/08/18 08:32:37;;;;;;;6.25;2.55;;;31.60;70.50;;;;;;6251012;23;20023;-85
2023/08/18 08:35:03;;;;;;;8.98;2.53;;;31.60;69.50;;;;;;6248948;23;20009;-85
2023/08/18 08:37:29;;;;;;;5.72;2.20;;;31.80;68.40;;;;;;6250991;23;20020;-85
2023/08/18 08:39:55;;;;;;;4.85;2.20;;;32.10;69.70;;;;;;6250788;23;20100;-85
2023/08/18 08:42:21;;;;;;;4.97;2.00;;;31.90;71.30;;;;;;6250081;23;20425;-85
2023/08/18 08:44:47;;;;;;;5.30;2.08;;;32.00;71.40;;;;;;6250397;23;20001;-84
2023/08/18 08:47:14;;;;;;;6.85;2.55;;;32.10;71.30;;;;;;6250368;23;20058;-85
2023/08/18 08:49:43;;;;;;;6.07;2.20;;;32.00;71.90;;;;;;6223491;23;20004;-85
2023/08/18 08:52:11;;;;;;;5.80;2.15;;;31.80;71.80;;;;;;6222067;23;20004;-85
2023/08/18 08:54:59;;;;;;;4.10;2.20;;;31.80;72.40;;;;;;6222515;23;20027;-84
2023/08/18 08:57:25;;;;;;;5.85;2.60;;;31.60;73.30;;;;;;6248323;23;20000;-81
2023/08/18 08:59:53;;;;;;;6.45;2.30;;;31.70;73.00;;;;;;6222190;23;20008;-87
2023/08/18 09:02:18;;;;;;;6.65;2.30;;;31.70;73.20;;;;;;6248540;23;20008;-79
2023/08/18 09:04:47;;;;;;;6.20;2.67;;;31.00;74.20;;;;;;6248245;23;20004;-79
2023/08/18 09:07:14;;;;;;;5.97;2.65;;;30.80;75.60;;;;;;6249179;23;20042;-83
2023/08/18 09:09:40;;;;;;;6.13;2.30;;;31.10;75.90;;;;;;6246875;23;20008;-83
2023/08/18 09:12:07;;;;;;;5.50;2.40;;;31.60;75.30;;;;;;6250077;23;19996;-82
2023/08/18 09:14:38;;;;;;;6.40;2.80;;;32.10;72.50;;;;;;6249596;23;20057;-82
2023/08/18 09:17:04;;;;;;;5.47;2.33;;;32.70;72.30;;;;;;6248459;23;20012;-82
2023/08/18 09:19:30;;;;;;;6.03;2.20;;;32.40;72.30;;;;;;6248192;23;20000;-84
2023/08/18 09:21:59;;;;;;;6.63;2.80;;;32.40;72.80;;;;;;6246478;23;20007;-83
2023/08/18 09:24:26;;;;;;;7.38;2.75;;;32.70;72.20;;;;;;6248810;23;20081;-83
2023/08/18 09:26:52;;;;;;;6.00;2.28;;;33.10;71.00;;;;;;6249404;23;20054;-83
2023/08/18 09:29:18;;;;;;;14.38;3.30;;;33.20;71.00;;;;;;6249493;23;20300;-83
2023/08/18 09:31:47;;;;;;;18.50;3.75;;;33.70;70.30;;;;;;6249243;23;20032;-84
2023/08/18 09:34:22;;;;;;;7.70;2.63;;;33.60;69.70;;;;;;6248527;23;20095;-84
2023/08/18 09:36:54;;;;;;;10.90;3.10;;;33.40;71.90;;;;;;6247758;23;20083;-84
2023/08/18 09:39:20;;;;;;;53.60;7.88;;;33.30;71.50;;;;;;6250453;23;20004;-83
2023/08/18 09:41:53;;;;;;;8.50;2.85;;;33.60;70.90;;;;;;6250034;23;20057;-82
2023/08/18 09:44:20;;;;;;;6.50;2.47;;;33.70;70.90;;;;;;6249117;23;20001;-82
2023/08/18 09:46:50;;;;;;;5.28;2.50;;;34.10;70.10;;;;;;6250315;23;20004;-82
2023/08/18 09:49:21;;;;;;;8.43;2.50;;;34.00;70.80;;;;;;6249230;23;20000;-82
2023/08/18 09:52:03;;;;;;;8.23;2.95;;;34.10;69.50;;;;;;6247537;23;20007;-83
2023/08/18 09:54:34;;;;;;;9.57;2.83;;;33.80;69.60;;;;;;6246575;23;20000;-83
2023/08/18 09:57:07;;;;;;;6.90;2.53;;;33.60;70.70;;;;;;6245886;23;20007;-83
2023/08/18 09:59:43;;;;;;;7.38;2.35;;;33.10;71.60;;;;;;6245495;23;20008;-82
2023/08/18 10:02:17;;;;;;;8.00;2.35;;;33.00;70.60;;;;;;6244413;23;20023;-83
2023/08/18 10:04:46;;;;;;;6.18;2.90;;;33.40;69.80;;;;;;6243936;23;20396;-82
2023/08/18 10:07:13;;;;;;;7.28;2.70;;;33.30;70.90;;;;;;6242022;23;20008;-83
2023/08/18 10:09:41;;;;;;;10.20;3.05;;;33.10;69.80;;;;;;6248669;23;20075;-84
2023/08/18 10:12:07;;;;;;;8.18;2.72;;;33.30;71.60;;;;;;6250020;23;20010;-83
2023/08/18 10:14:34;;;;;;;8.90;2.78;;;33.70;70.00;;;;;;6248939;23;20099;-83
2023/08/18 10:17:01;;;;;;;5.60;2.70;;;33.80;70.10;;;;;;6248935;23;20000;-83
2023/08/18 10:19:58;;;;;;;6.72;2.22;;;34.00;68.60;;;;;;6221742;23;20012;-83
2023/08/18 10:22:28;;;;;;;9.43;2.70;;;34.20;68.20;;;;;;6248240;23;20389;-83
2023/08/18 10:24:56;;;;;;;7.90;2.10;;;34.80;66.70;;;;;;6248782;23;20024;-83
2023/08/18 10:27:27;;;;;;;8.60;2.30;;;34.00;67.60;;;;;;6249677;23;20058;-82
2023/08/18 10:30:00;;;;;;;8.50;2.47;;;33.90;68.80;;;;;;6221097;23;20012;-83
2023/08/18 10:32:29;;;;;;;9.15;2.80;;;33.90;68.60;;;;;;6221203;23;20023;-83
2023/08/18 10:35:27;;;;;;;7.28;2.55;;;34.40;68.20;;;;;;6247159;23;20004;-83
2023/08/18 10:38:04;;;;;;;11.32;2.60;;;33.60;68.00;;;;;;6237926;23;20016;-83
2023/08/18 10:40:33;;;;;;;5.88;2.20;;;33.70;68.60;;;;;;6250359;23;20000;-83
2023/08/18 10:43:13;;;;;;;5.65;2.15;;;33.70;67.70;;;;;;6249960;23;20079;-83
2023/08/18 10:45:42;;;;;;;6.57;2.10;;;34.30;67.10;;;;;;6246519;23;20380;-84
2023/08/18 10:48:09;;;;;;;5.78;2.38;;;34.20;66.60;;;;;;6248022;23;20027;-84
2023/08/18 10:50:38;;;;;;;6.22;2.20;;;34.50;67.10;;;;;;6247300;23;20003;-83
2023/08/18 10:53:04;;;;;;;6.63;2.10;;;34.80;61.10;;;;;;6222499;23;20083;-84
2023/08/18 10:55:30;;;;;;;8.50;1.92;;;35.40;57.30;;;;;;6248287;23;20000;-83
2023/08/18 10:57:56;;;;;;;7.80;2.22;;;35.20;59.80;;;;;;6247425;23;20087;-83
2023/08/18 11:00:23;;;;;;;7.38;2.00;;;35.40;57.90;;;;;;6249210;23;20377;-83
2023/08/18 11:02:50;;;;;;;7.18;1.75;;;35.80;56.40;;;;;;6249368;23;20038;-82
2023/08/18 11:05:19;;;;;;;8.52;2.28;;;36.50;55.50;;;;;;6247140;23;20058;-84
2023/08/18 11:07:46;;;;;;;7.85;1.92;;;36.80;55.00;;;;;;6247287;23;20008;-83
2023/08/18 11:10:22;;;;;;;8.05;2.35;;;37.00;55.90;;;;;;6247457;23;20000;-83
2023/08/18 11:12:51;;;;;;;7.65;1.83;;;36.90;54.60;;;;;;6248883;23;20079;-83
2023/08/18 11:15:23;;;;;;;7.40;1.98;;;36.80;55.10;;;;;;6221522;23;20004;-82
2023/08/18 11:17:49;;;;;;;7.22;1.98;;;36.80;55.30;;;;;;6249405;23;20004;-83
2023/08/18 11:20:16;;;;;;;7.20;2.08;;;36.50;54.40;;;;;;6247899;23;20043;-83
2023/08/18 11:22:45;;;;;;;9.23;2.83;;;36.00;57.40;;;;;;6249445;23;20000;-83
2023/08/18 11:25:14;;;;;;;8.95;2.15;;;35.10;54.50;;;;;;6249350;23;20004;-83
2023/08/18 11:27:41;;;;;;;10.80;2.55;;;34.90;59.10;;;;;;6249110;23;20085;-83
2023/08/18 11:30:11;;;;;;;8.55;2.58;;;35.20;56.90;;;;;;6249076;23;20075;-83
2023/08/18 11:32:37;;;;;;;6.97;2.00;;;35.70;56.30;;;;;;6249213;23;20035;-83
2023/08/18 11:35:05;;;;;;;8.32;2.47;;;36.10;54.50;;;;;;6247748;23;20007;-83
2023/08/18 11:37:30;;;;;;;8.38;2.10;;;36.30;55.70;;;;;;6215961;23;20386;-84
2023/08/18 11:39:57;;;;;;;9.50;2.13;;;36.10;54.70;;;;;;6245819;23;20019;-82
2023/08/18 11:42:23;;;;;;;7.32;2.10;;;35.40;58.40;;;;;;6245071;23;20066;-82
2023/08/18 11:44:54;;;;;;;8.27;2.40;;;35.70;58.60;;;;;;6245813;23;20008;-83
2023/08/18 11:47:21;;;;;;;7.60;2.28;;;36.00;57.90;;;;;;6245155;23;20031;-82
2023/08/18 11:49:47;;;;;;;12.20;2.40;;;35.80;56.80;;;;;;6217648;23;20058;-82
2023/08/18 11:52:13;;;;;;;10.30;3.03;;;35.30;57.10;;;;;;6243858;23;20000;-83
2023/08/18 11:54:41;;;;;;;7.32;2.08;;;34.30;57.20;;;;;;6246398;23;20008;-84
2023/08/18 11:57:12;;;;;;;7.65;2.53;;;33.20;61.30;;;;;;6245045;23;20060;-82
2023/08/18 11:59:44;;;;;;;7.53;2.13;;;33.50;65.10;;;;;;6246889;23;20001;-82
2023/08/18 12:02:10;;;;;;;7.78;2.80;;;34.30;61.90;;;;;;6247751;23;20000;-83
2023/08/18 12:04:41;;;;;;;5.75;2.00;;;34.40;62.40;;;;;;6247225;23;20012;-80
2023/08/18 12:07:07;;;;;;;6.97;2.55;;;34.70;62.00;;;;;;6245227;23;19996;-82
2023/08/18 12:09:32;;;;;;;6.57;2.28;;;34.80;61.60;;;;;;6247149;23;20066;-81
2023/08/18 12:11:58;;;;;;;9.15;2.40;;;34.90;60.10;;;;;;6245783;23;20000;-82
2023/08/18 12:14:23;;;;;;;7.80;2.55;;;35.00;58.40;;;;;;6245840;23;20095;-82
2023/08/18 12:16:49;;;;;;;6.63;2.03;;;35.10;58.60;;;;;;6244736;23;20000;-84
2023/08/18 12:19:14;;;;;;;6.05;2.10;;;34.90;60.00;;;;;;6246935;23;20004;-81
2023/08/18 12:21:40;;;;;;;9.35;2.17;;;35.10;60.30;;;;;;6245918;23;20004;-82
2023/08/18 12:24:06;;;;;;;9.32;2.20;;;35.00;59.00;;;;;;6244081;23;20004;-82
2023/08/18 12:26:33;;;;;;;9.82;2.47;;;34.70;58.70;;;;;;6245546;23;20008;-81
2023/08/18 12:28:58;;;;;;;8.05;2.13;;;34.60;59.80;;;;;;6250847;23;20244;-82
2023/08/18 12:31:24;;;;;;;6.03;2.17;;;34.60;60.30;;;;;;6251326;23;20082;-83
2023/08/18 12:33:53;;;;;;;11.02;2.13;;;34.90;57.30;;;;;;6224665;23;20049;-82
2023/08/18 12:36:19;;;;;;;9.98;2.30;;;35.30;59.20;;;;;;6248695;23;20012;-81
2023/08/18 12:38:48;;;;;;;5.97;1.98;;;36.00;59.00;;;;;;6250602;23;20011;-81
2023/08/18 12:41:14;;;;;;;7.13;2.00;;;36.40;58.00;;;;;;6251199;23;20015;-81
2023/08/18 12:43:40;;;;;;;9.32;2.40;;;36.40;55.80;;;;;;6251202;23;20042;-81
2023/08/18 12:46:06;;;;;;;10.95;2.15;;;36.50;55.70;;;;;;6249406;23;20008;-82